sensor_id;sensor_type;location;lat;lon;timestamp;temperature;humidity
38995;DHT22;24769;18.712;99.000;2023-03-01T00:00:08;17.00;99.90
38995;DHT22;24769;18.712;99.000;2023-03-01T00:02:35;17.00;99.90
38995;DHT22;24769;18.712;99.000;2023-03-01T00:05:02;17.00;99.90
38995;DHT22;24769;18.712;99.000;2023-03-01T00:07:29;17.10;99.90
38995;DHT22;24769;18.712;99.000;2023-03-01T00:09:55;17.00;99.90
38995;DHT22;24769;18.712;99.000;2023-03-01T00:12:22;17.10;99.90
38995;DHT22;24769;18.712;99.000;2023-03-01T00:14:48;17.00;99.90
38995;DHT22;24769;18.712;99.000;2023-03-01T00:17:15;17.10;99.90
38995;DHT22;24769;18.712;99.000;2023-03-01T00:19:41;17.20;99.90
38995;DHT22;24769;18.712;99.000;2023-03-01T00:22:08;17.20;99.90
38995;DHT22;24769;18.712;99.000;2023-03-01T00:24:34;17.20;99.90
38995;DHT22;24769;18.712;99.000;2023-03-01T00:27:01;17.20;99.90
38995;DHT22;24769;18.712;99.000;2023-03-01T00:29:28;17.30;99.90
38995;DHT22;24769;18.712;99.000;2023-03-01T00:31:54;17.40;99.90
38995;DHT22;24769;18.712;99.000;2023-03-01T00:34:20;17.50;99.90
38995;DHT22;24769;18.712;99.000;2023-03-01T00:36:47;17.70;99.90
38995;DHT22;24769;18.712;99.000;2023-03-01T00:39:14;17.80;99.90
38995;DHT22;24769;18.712;99.000;2023-03-01T00:41:42;17.90;99.90
38995;DHT22;24769;18.712;99.000;2023-03-01T00:44:09;18.00;99.90
38995;DHT22;24769;18.712;99.000;2023-03-01T00:46:36;18.20;99.90
38995;DHT22;24769;18.712;99.000;2023-03-01T00:49:02;18.30;99.90
38995;DHT22;24769;18.712;99.000;2023-03-01T00:51:30;18.40;99.90
38995;DHT22;24769;18.712;99.000;2023-03-01T00:54:00;18.50;99.90
38995;DHT22;24769;18.712;99.000;2023-03-01T00:56:28;18.60;99.90
38995;DHT22;24769;18.712;99.000;2023-03-01T00:58:55;18.70;99.90
38995;DHT22;24769;18.712;99.000;2023-03-01T01:01:26;18.80;99.90
38995;DHT22;24769;18.712;99.000;2023-03-01T01:03:57;18.80;99.90
38995;DHT22;24769;18.712;99.000;2023-03-01T01:06:30;19.00;99.90
38995;DHT22;24769;18.712;99.000;2023-03-01T01:08:57;19.10;99.90
38995;DHT22;24769;18.712;99.000;2023-03-01T01:11:26;19.20;99.90
38995;DHT22;24769;18.712;99.000;2023-03-01T01:13:53;19.30;99.90
38995;DHT22;24769;18.712;99.000;2023-03-01T01:16:22;19.50;99.90
38995;DHT22;24769;18.712;99.000;2023-03-01T01:18:49;19.60;99.90
38995;DHT22;24769;18.712;99.000;2023-03-01T01:21:19;19.70;99.90
38995;DHT22;24769;18.712;99.000;2023-03-01T01:23:46;19.80;99.90
38995;DHT22;24769;18.712;99.000;2023-03-01T01:26:18;19.90;99.90
38995;DHT22;24769;18.712;99.000;2023-03-01T01:28:45;20.10;99.90
38995;DHT22;24769;18.712;99.000;2023-03-01T01:31:12;20.20;99.90
38995;DHT22;24769;18.712;99.000;2023-03-01T01:33:39;20.20;99.90
38995;DHT22;24769;18.712;99.000;2023-03-01T01:36:06;20.20;99.90
38995;DHT22;24769;18.712;99.000;2023-03-01T01:38:33;20.40;99.90
38995;DHT22;24769;18.712;99.000;2023-03-01T01:41:00;20.60;99.90
38995;DHT22;24769;18.712;99.000;2023-03-01T01:43:33;20.80;99.90
38995;DHT22;24769;18.712;99.000;2023-03-01T01:46:47;20.90;99.90
38995;DHT22;24769;18.712;99.000;2023-03-01T01:48:52;21.10;99.90
38995;DHT22;24769;18.712;99.000;2023-03-01T01:51:24;21.20;99.90
38995;DHT22;24769;18.712;99.000;2023-03-01T01:53:59;21.30;99.90
38995;DHT22;24769;18.712;99.000;2023-03-01T01:56:28;21.40;99.90
38995;DHT22;24769;18.712;99.000;2023-03-01T01:58:55;21.50;99.50
38995;DHT22;24769;18.712;99.000;2023-03-01T02:01:22;21.40;99.90
38995;DHT22;24769;18.712;99.000;2023-03-01T02:03:49;21.70;98.60
38995;DHT22;24769;18.712;99.000;2023-03-01T02:06:29;21.80;99.90
38995;DHT22;24769;18.712;99.000;2023-03-01T02:09:23;21.90;99.90
38995;DHT22;24769;18.712;99.000;2023-03-01T02:11:51;22.20;99.90
38995;DHT22;24769;18.712;99.000;2023-03-01T02:14:18;22.40;96.50
38995;DHT22;24769;18.712;99.000;2023-03-01T02:16:45;22.40;92.40
38995;DHT22;24769;18.712;99.000;2023-03-01T02:19:33;22.40;83.10
38995;DHT22;24769;18.712;99.000;2023-03-01T02:22:22;22.70;82.00
38995;DHT22;24769;18.712;99.000;2023-03-01T02:25:12;22.40;76.00
38995;DHT22;24769;18.712;99.000;2023-03-01T02:30:47;23.00;76.40
38995;DHT22;24769;18.712;99.000;2023-03-01T02:33:34;23.20;74.80
38995;DHT22;24769;18.712;99.000;2023-03-01T02:36:06;23.50;72.90
38995;DHT22;24769;18.712;99.000;2023-03-01T02:38:33;23.40;63.70
38995;DHT22;24769;18.712;99.000;2023-03-01T02:41:01;23.50;59.00
38995;DHT22;24769;18.712;99.000;2023-03-01T02:43:31;23.60;60.10
38995;DHT22;24769;18.712;99.000;2023-03-01T02:46:04;23.70;60.30
38995;DHT22;24769;18.712;99.000;2023-03-01T02:48:40;23.70;57.70
38995;DHT22;24769;18.712;99.000;2023-03-01T02:56:39;24.30;51.80
38995;DHT22;24769;18.712;99.000;2023-03-01T02:59:07;24.00;52.20
38995;DHT22;24769;18.712;99.000;2023-03-01T03:01:33;24.00;51.70
38995;DHT22;24769;18.712;99.000;2023-03-01T03:04:05;24.30;50.90
38995;DHT22;24769;18.712;99.000;2023-03-01T03:06:31;24.10;51.80
38995;DHT22;24769;18.712;99.000;2023-03-01T03:08:58;24.50;49.40
38995;DHT22;24769;18.712;99.000;2023-03-01T03:11:25;24.80;47.50
38995;DHT22;24769;18.712;99.000;2023-03-01T03:13:52;24.50;47.40
38995;DHT22;24769;18.712;99.000;2023-03-01T03:16:19;25.00;47.70
38995;DHT22;24769;18.712;99.000;2023-03-01T03:18:46;25.40;45.60
38995;DHT22;24769;18.712;99.000;2023-03-01T03:21:13;25.20;46.20
38995;DHT22;24769;18.712;99.000;2023-03-01T03:23:40;25.10;43.30
38995;DHT22;24769;18.712;99.000;2023-03-01T03:26:06;24.90;42.90
38995;DHT22;24769;18.712;99.000;2023-03-01T03:28:34;24.90;43.20
38995;DHT22;24769;18.712;99.000;2023-03-01T03:31:01;25.00;45.20
38995;DHT22;24769;18.712;99.000;2023-03-01T03:33:31;25.20;42.80
38995;DHT22;24769;18.712;99.000;2023-03-01T03:35:58;25.50;41.40
38995;DHT22;24769;18.712;99.000;2023-03-01T03:38:24;25.30;41.70
38995;DHT22;24769;18.712;99.000;2023-03-01T03:40:52;25.60;40.80
38995;DHT22;24769;18.712;99.000;2023-03-01T03:43:22;25.70;41.70
38995;DHT22;24769;18.712;99.000;2023-03-01T03:45:50;26.20;39.50
38995;DHT22;24769;18.712;99.000;2023-03-01T03:48:17;26.50;37.50
38995;DHT22;24769;18.712;99.000;2023-03-01T03:50:51;26.50;36.50
38995;DHT22;24769;18.712;99.000;2023-03-01T03:53:19;26.70;36.80
38995;DHT22;24769;18.712;99.000;2023-03-01T03:55:46;26.80;36.20
38995;DHT22;24769;18.712;99.000;2023-03-01T03:58:16;26.60;32.80
38995;DHT22;24769;18.712;99.000;2023-03-01T04:00:46;26.60;33.30
38995;DHT22;24769;18.712;99.000;2023-03-01T04:03:15;26.60;32.50
38995;DHT22;24769;18.712;99.000;2023-03-01T04:05:42;26.50;35.00
38995;DHT22;24769;18.712;99.000;2023-03-01T04:08:09;26.40;33.80
38995;DHT22;24769;18.712;99.000;2023-03-01T04:10:41;26.80;33.70
38995;DHT22;24769;18.712;99.000;2023-03-01T04:13:11;27.20;31.30
38995;DHT22;24769;18.712;99.000;2023-03-01T04:15:39;27.20;30.00
38995;DHT22;24769;18.712;99.000;2023-03-01T04:18:06;27.30;29.20
38995;DHT22;24769;18.712;99.000;2023-03-01T04:20:34;27.30;28.80
38995;DHT22;24769;18.712;99.000;2023-03-01T04:23:08;26.80;29.40
38995;DHT22;24769;18.712;99.000;2023-03-01T04:28:27;27.40;26.40
38995;DHT22;24769;18.712;99.000;2023-03-01T04:30:55;27.30;27.10
38995;DHT22;24769;18.712;99.000;2023-03-01T04:33:22;27.60;27.20
38995;DHT22;24769;18.712;99.000;2023-03-01T04:35:49;27.40;28.10
38995;DHT22;24769;18.712;99.000;2023-03-01T04:38:17;27.70;27.30
38995;DHT22;24769;18.712;99.000;2023-03-01T04:40:44;27.80;26.20
38995;DHT22;24769;18.712;99.000;2023-03-01T04:43:12;28.00;26.80
38995;DHT22;24769;18.712;99.000;2023-03-01T04:45:41;28.20;27.30
38995;DHT22;24769;18.712;99.000;2023-03-01T04:48:08;28.50;24.80
38995;DHT22;24769;18.712;99.000;2023-03-01T04:50:35;28.30;25.10
38995;DHT22;24769;18.712;99.000;2023-03-01T04:53:02;28.60;24.90
38995;DHT22;24769;18.712;99.000;2023-03-01T04:55:29;28.70;24.30
38995;DHT22;24769;18.712;99.000;2023-03-01T04:57:55;28.60;24.80
38995;DHT22;24769;18.712;99.000;2023-03-01T05:00:22;28.80;25.60
38995;DHT22;24769;18.712;99.000;2023-03-01T05:02:55;29.00;25.60
38995;DHT22;24769;18.712;99.000;2023-03-01T05:05:34;28.80;24.00
38995;DHT22;24769;18.712;99.000;2023-03-01T05:08:04;29.00;25.30
38995;DHT22;24769;18.712;99.000;2023-03-01T05:10:32;28.90;23.70
38995;DHT22;24769;18.712;99.000;2023-03-01T05:13:01;29.10;22.80
38995;DHT22;24769;18.712;99.000;2023-03-01T05:15:30;29.20;22.40
38995;DHT22;24769;18.712;99.000;2023-03-01T05:17:58;29.50;21.30
38995;DHT22;24769;18.712;99.000;2023-03-01T05:20:27;29.40;21.10
38995;DHT22;24769;18.712;99.000;2023-03-01T05:22:59;29.40;21.30
38995;DHT22;24769;18.712;99.000;2023-03-01T05:25:27;29.60;21.20
38995;DHT22;24769;18.712;99.000;2023-03-01T05:28:03;29.80;20.20
38995;DHT22;24769;18.712;99.000;2023-03-01T05:30:33;30.00;19.90
38995;DHT22;24769;18.712;99.000;2023-03-01T05:33:00;29.70;19.30
38995;DHT22;24769;18.712;99.000;2023-03-01T05:35:27;29.80;19.40
38995;DHT22;24769;18.712;99.000;2023-03-01T05:37:55;29.80;19.40
38995;DHT22;24769;18.712;99.000;2023-03-01T05:40:23;29.50;19.20
38995;DHT22;24769;18.712;99.000;2023-03-01T05:42:54;29.60;19.10
38995;DHT22;24769;18.712;99.000;2023-03-01T05:45:23;30.00;19.50
38995;DHT22;24769;18.712;99.000;2023-03-01T05:47:51;30.20;19.20
38995;DHT22;24769;18.712;99.000;2023-03-01T05:52:49;30.60;17.30
38995;DHT22;24769;18.712;99.000;2023-03-01T05:55:21;30.20;16.80
38995;DHT22;24769;18.712;99.000;2023-03-01T05:57:48;30.30;16.30
38995;DHT22;24769;18.712;99.000;2023-03-01T06:00:20;30.50;17.50
38995;DHT22;24769;18.712;99.000;2023-03-01T06:02:50;30.60;17.30
38995;DHT22;24769;18.712;99.000;2023-03-01T06:05:18;30.50;15.90
38995;DHT22;24769;18.712;99.000;2023-03-01T06:07:44;30.50;16.50
38995;DHT22;24769;18.712;99.000;2023-03-01T06:10:12;30.80;15.90
38995;DHT22;24769;18.712;99.000;2023-03-01T06:12:41;30.80;15.30
38995;DHT22;24769;18.712;99.000;2023-03-01T06:15:09;31.00;15.60
38995;DHT22;24769;18.712;99.000;2023-03-01T06:17:37;31.00;15.90
38995;DHT22;24769;18.712;99.000;2023-03-01T06:20:10;30.90;16.30
38995;DHT22;24769;18.712;99.000;2023-03-01T06:22:38;30.80;17.20
38995;DHT22;24769;18.712;99.000;2023-03-01T06:25:05;31.10;17.30
38995;DHT22;24769;18.712;99.000;2023-03-01T06:27:32;31.40;16.40
38995;DHT22;24769;18.712;99.000;2023-03-01T06:29:58;31.30;15.90
38995;DHT22;24769;18.712;99.000;2023-03-01T06:32:25;31.30;15.80
38995;DHT22;24769;18.712;99.000;2023-03-01T06:34:51;31.30;15.10
38995;DHT22;24769;18.712;99.000;2023-03-01T06:37:18;31.00;14.90
38995;DHT22;24769;18.712;99.000;2023-03-01T06:39:44;31.40;13.70
38995;DHT22;24769;18.712;99.000;2023-03-01T06:42:11;31.70;14.00
38995;DHT22;24769;18.712;99.000;2023-03-01T06:44:38;31.60;12.40
38995;DHT22;24769;18.712;99.000;2023-03-01T06:47:05;31.60;13.20
38995;DHT22;24769;18.712;99.000;2023-03-01T06:49:31;31.60;12.50
38995;DHT22;24769;18.712;99.000;2023-03-01T06:51:58;31.60;12.80
38995;DHT22;24769;18.712;99.000;2023-03-01T06:54:24;31.40;12.30
38995;DHT22;24769;18.712;99.000;2023-03-01T06:56:51;31.60;13.50
38995;DHT22;24769;18.712;99.000;2023-03-01T06:59:17;31.70;13.10
38995;DHT22;24769;18.712;99.000;2023-03-01T07:01:44;31.60;12.10
38995;DHT22;24769;18.712;99.000;2023-03-01T07:04:12;31.50;12.30
38995;DHT22;24769;18.712;99.000;2023-03-01T07:06:39;31.70;12.60
38995;DHT22;24769;18.712;99.000;2023-03-01T07:09:05;31.80;13.30
38995;DHT22;24769;18.712;99.000;2023-03-01T07:11:32;31.90;13.70
38995;DHT22;24769;18.712;99.000;2023-03-01T07:13:59;32.00;12.70
38995;DHT22;24769;18.712;99.000;2023-03-01T07:16:26;32.10;12.00
38995;DHT22;24769;18.712;99.000;2023-03-01T07:18:52;32.20;12.50
38995;DHT22;24769;18.712;99.000;2023-03-01T07:21:18;32.20;12.70
38995;DHT22;24769;18.712;99.000;2023-03-01T07:23:47;32.10;12.50
38995;DHT22;24769;18.712;99.000;2023-03-01T07:26:15;32.20;12.80
38995;DHT22;24769;18.712;99.000;2023-03-01T07:28:41;32.10;12.40
38995;DHT22;24769;18.712;99.000;2023-03-01T07:31:07;32.10;13.20
38995;DHT22;24769;18.712;99.000;2023-03-01T07:33:34;32.10;12.80
38995;DHT22;24769;18.712;99.000;2023-03-01T07:36:03;32.10;12.50
38995;DHT22;24769;18.712;99.000;2023-03-01T07:38:30;32.00;11.10
38995;DHT22;24769;18.712;99.000;2023-03-01T07:41:01;32.20;11.50
38995;DHT22;24769;18.712;99.000;2023-03-01T07:43:29;32.10;10.80
38995;DHT22;24769;18.712;99.000;2023-03-01T07:46:01;31.90;10.50
38995;DHT22;24769;18.712;99.000;2023-03-01T07:48:29;32.00;11.50
38995;DHT22;24769;18.712;99.000;2023-03-01T07:51:00;32.10;11.20
38995;DHT22;24769;18.712;99.000;2023-03-01T07:53:27;32.20;11.60
38995;DHT22;24769;18.712;99.000;2023-03-01T07:56:03;32.20;12.40
38995;DHT22;24769;18.712;99.000;2023-03-01T07:58:30;32.30;12.50
38995;DHT22;24769;18.712;99.000;2023-03-01T08:01:02;32.20;11.50
38995;DHT22;24769;18.712;99.000;2023-03-01T08:03:28;32.20;11.30
38995;DHT22;24769;18.712;99.000;2023-03-01T08:05:55;32.30;11.00
38995;DHT22;24769;18.712;99.000;2023-03-01T08:08:22;32.20;10.60
38995;DHT22;24769;18.712;99.000;2023-03-01T08:10:48;32.40;11.20
38995;DHT22;24769;18.712;99.000;2023-03-01T08:13:15;32.30;10.20
38995;DHT22;24769;18.712;99.000;2023-03-01T08:15:41;32.30;10.40
38995;DHT22;24769;18.712;99.000;2023-03-01T08:18:07;32.20;10.00
38995;DHT22;24769;18.712;99.000;2023-03-01T08:20:34;32.30;10.30
38995;DHT22;24769;18.712;99.000;2023-03-01T08:23:00;32.30;9.60
38995;DHT22;24769;18.712;99.000;2023-03-01T08:25:27;32.30;8.40
38995;DHT22;24769;18.712;99.000;2023-03-01T08:27:53;32.30;9.30
38995;DHT22;24769;18.712;99.000;2023-03-01T08:30:20;32.30;8.50
38995;DHT22;24769;18.712;99.000;2023-03-01T08:32:46;32.40;9.40
38995;DHT22;24769;18.712;99.000;2023-03-01T08:35:13;32.30;9.00
38995;DHT22;24769;18.712;99.000;2023-03-01T08:37:39;32.30;10.30
38995;DHT22;24769;18.712;99.000;2023-03-01T08:40:06;32.10;9.30
38995;DHT22;24769;18.712;99.000;2023-03-01T08:42:33;32.10;10.10
38995;DHT22;24769;18.712;99.000;2023-03-01T08:45:00;32.10;10.80
38995;DHT22;24769;18.712;99.000;2023-03-01T08:47:26;32.00;8.90
38995;DHT22;24769;18.712;99.000;2023-03-01T08:49:53;32.00;7.20
38995;DHT22;24769;18.712;99.000;2023-03-01T08:52:20;32.00;7.90
38995;DHT22;24769;18.712;99.000;2023-03-01T08:54:50;32.00;8.10
38995;DHT22;24769;18.712;99.000;2023-03-01T08:57:17;32.00;7.70
38995;DHT22;24769;18.712;99.000;2023-03-01T08:59:43;32.00;7.50
38995;DHT22;24769;18.712;99.000;2023-03-01T09:02:17;32.10;6.70
38995;DHT22;24769;18.712;99.000;2023-03-01T09:04:44;32.00;7.70
38995;DHT22;24769;18.712;99.000;2023-03-01T09:07:11;32.00;6.90
38995;DHT22;24769;18.712;99.000;2023-03-01T09:09:37;31.90;8.20
38995;DHT22;24769;18.712;99.000;2023-03-01T09:12:04;32.00;8.70
38995;DHT22;24769;18.712;99.000;2023-03-01T09:14:31;32.10;8.20
38995;DHT22;24769;18.712;99.000;2023-03-01T09:16:58;32.10;8.50
38995;DHT22;24769;18.712;99.000;2023-03-01T09:19:28;31.80;7.40
38995;DHT22;24769;18.712;99.000;2023-03-01T09:21:55;31.60;8.90
38995;DHT22;24769;18.712;99.000;2023-03-01T09:24:25;31.60;8.20
38995;DHT22;24769;18.712;99.000;2023-03-01T09:26:54;31.80;6.00
38995;DHT22;24769;18.712;99.000;2023-03-01T09:29:21;31.80;7.60
38995;DHT22;24769;18.712;99.000;2023-03-01T09:31:48;31.80;6.20
38995;DHT22;24769;18.712;99.000;2023-03-01T09:34:15;31.70;8.20
38995;DHT22;24769;18.712;99.000;2023-03-01T09:36:45;31.70;7.00
38995;DHT22;24769;18.712;99.000;2023-03-01T09:39:11;31.60;7.50
38995;DHT22;24769;18.712;99.000;2023-03-01T09:41:53;31.60;7.30
38995;DHT22;24769;18.712;99.000;2023-03-01T09:46:50;31.60;6.50
38995;DHT22;24769;18.712;99.000;2023-03-01T09:49:21;31.30;7.20
38995;DHT22;24769;18.712;99.000;2023-03-01T09:52:23;31.20;9.10
38995;DHT22;24769;18.712;99.000;2023-03-01T09:54:51;31.20;8.60
38995;DHT22;24769;18.712;99.000;2023-03-01T09:57:26;31.00;11.40
38995;DHT22;24769;18.712;99.000;2023-03-01T10:02:47;30.50;12.70
38995;DHT22;24769;18.712;99.000;2023-03-01T10:10:45;30.20;13.70
38995;DHT22;24769;18.712;99.000;2023-03-01T10:15:50;30.30;12.40
38995;DHT22;24769;18.712;99.000;2023-03-01T10:18:29;30.00;14.30
38995;DHT22;24769;18.712;99.000;2023-03-01T10:23:37;29.60;15.40
38995;DHT22;24769;18.712;99.000;2023-03-01T10:26:38;29.50;16.70
38995;DHT22;24769;18.712;99.000;2023-03-01T10:29:11;29.30;17.90
38995;DHT22;24769;18.712;99.000;2023-03-01T10:34:21;29.10;19.40
38995;DHT22;24769;18.712;99.000;2023-03-01T10:36:58;28.90;19.70
38995;DHT22;24769;18.712;99.000;2023-03-01T10:39:27;28.70;19.90
38995;DHT22;24769;18.712;99.000;2023-03-01T10:44:46;28.40;21.00
38995;DHT22;24769;18.712;99.000;2023-03-01T10:47:20;28.30;19.60
38995;DHT22;24769;18.712;99.000;2023-03-01T10:49:59;28.20;19.90
38995;DHT22;24769;18.712;99.000;2023-03-01T10:52:37;28.00;19.20
38995;DHT22;24769;18.712;99.000;2023-03-01T10:55:39;27.80;19.90
38995;DHT22;24769;18.712;99.000;2023-03-01T11:00:52;27.50;22.30
38995;DHT22;24769;18.712;99.000;2023-03-01T11:03:29;27.40;22.80
38995;DHT22;24769;18.712;99.000;2023-03-01T11:08:43;27.00;24.50
38995;DHT22;24769;18.712;99.000;2023-03-01T11:13:59;26.80;24.10
38995;DHT22;24769;18.712;99.000;2023-03-01T11:16:35;26.60;24.50
38995;DHT22;24769;18.712;99.000;2023-03-01T11:24:13;26.20;28.10
38995;DHT22;24769;18.712;99.000;2023-03-01T11:26:44;26.20;29.10
38995;DHT22;24769;18.712;99.000;2023-03-01T11:32:07;25.80;31.20
38995;DHT22;24769;18.712;99.000;2023-03-01T11:37:23;25.60;35.20
38995;DHT22;24769;18.712;99.000;2023-03-01T11:40:12;25.60;35.40
38995;DHT22;24769;18.712;99.000;2023-03-01T11:45:15;25.40;36.70
38995;DHT22;24769;18.712;99.000;2023-03-01T11:50:40;25.40;39.30
38995;DHT22;24769;18.712;99.000;2023-03-01T11:56:00;25.10;42.80
38995;DHT22;24769;18.712;99.000;2023-03-01T12:12:43;24.60;49.10
38995;DHT22;24769;18.712;99.000;2023-03-01T12:15:30;24.50;50.10
38995;DHT22;24769;18.712;99.000;2023-03-01T12:23:26;24.30;52.10
38995;DHT22;24769;18.712;99.000;2023-03-01T12:35:03;24.00;52.60
38995;DHT22;24769;18.712;99.000;2023-03-01T12:37:42;24.00;52.50
38995;DHT22;24769;18.712;99.000;2023-03-01T12:51:08;23.80;54.70
38995;DHT22;24769;18.712;99.000;2023-03-01T12:56:29;23.60;54.40
38995;DHT22;24769;18.712;99.000;2023-03-01T12:59:17;23.40;56.00
38995;DHT22;24769;18.712;99.000;2023-03-01T13:02:25;23.40;56.90
38995;DHT22;24769;18.712;99.000;2023-03-01T13:08:27;23.40;58.20
38995;DHT22;24769;18.712;99.000;2023-03-01T13:11:21;23.40;59.00
38995;DHT22;24769;18.712;99.000;2023-03-01T13:13:48;23.40;59.60
38995;DHT22;24769;18.712;99.000;2023-03-01T13:19:19;23.20;60.70
38995;DHT22;24769;18.712;99.000;2023-03-01T13:21:48;23.20;61.50
38995;DHT22;24769;18.712;99.000;2023-03-01T13:24:41;23.10;62.50
38995;DHT22;24769;18.712;99.000;2023-03-01T13:32:27;22.90;64.40
38995;DHT22;24769;18.712;99.000;2023-03-01T13:34:56;22.90;65.30
38995;DHT22;24769;18.712;99.000;2023-03-01T13:37:26;22.80;65.80
38995;DHT22;24769;18.712;99.000;2023-03-01T13:39:57;22.80;66.20
38995;DHT22;24769;18.712;99.000;2023-03-01T13:42:47;22.80;65.70
38995;DHT22;24769;18.712;99.000;2023-03-01T13:48:23;22.60;69.90
38995;DHT22;24769;18.712;99.000;2023-03-01T13:51:00;22.60;70.30
38995;DHT22;24769;18.712;99.000;2023-03-01T13:53:36;22.60;69.70
38995;DHT22;24769;18.712;99.000;2023-03-01T13:56:18;22.50;71.50
38995;DHT22;24769;18.712;99.000;2023-03-01T13:59:04;22.60;71.70
38995;DHT22;24769;18.712;99.000;2023-03-01T14:01:36;22.50;73.70
38995;DHT22;24769;18.712;99.000;2023-03-01T14:04:17;22.60;72.00
38995;DHT22;24769;18.712;99.000;2023-03-01T14:06:44;22.60;72.10
38995;DHT22;24769;18.712;99.000;2023-03-01T14:09:26;22.60;71.50
38995;DHT22;24769;18.712;99.000;2023-03-01T14:14:44;22.40;72.90
38995;DHT22;24769;18.712;99.000;2023-03-01T14:17:48;22.40;72.50
38995;DHT22;24769;18.712;99.000;2023-03-01T14:20:38;22.30;73.50
38995;DHT22;24769;18.712;99.000;2023-03-01T14:23:12;22.30;74.20
38995;DHT22;24769;18.712;99.000;2023-03-01T14:25:47;22.20;75.70
38995;DHT22;24769;18.712;99.000;2023-03-01T14:28:53;22.20;76.80
38995;DHT22;24769;18.712;99.000;2023-03-01T14:31:37;22.20;76.60
38995;DHT22;24769;18.712;99.000;2023-03-01T14:34:04;22.20;78.70
38995;DHT22;24769;18.712;99.000;2023-03-01T14:36:33;22.10;79.40
38995;DHT22;24769;18.712;99.000;2023-03-01T14:39:00;22.00;80.50
38995;DHT22;24769;18.712;99.000;2023-03-01T14:41:34;22.00;80.40
38995;DHT22;24769;18.712;99.000;2023-03-01T14:44:05;22.00;80.10
38995;DHT22;24769;18.712;99.000;2023-03-01T14:46:40;22.00;81.40
38995;DHT22;24769;18.712;99.000;2023-03-01T14:49:24;21.90;83.90
38995;DHT22;24769;18.712;99.000;2023-03-01T14:51:53;21.90;84.40
38995;DHT22;24769;18.712;99.000;2023-03-01T14:54:44;21.80;83.70
38995;DHT22;24769;18.712;99.000;2023-03-01T14:57:22;21.80;84.70
38995;DHT22;24769;18.712;99.000;2023-03-01T14:59:49;21.80;84.30
38995;DHT22;24769;18.712;99.000;2023-03-01T15:02:22;21.90;84.90
38995;DHT22;24769;18.712;99.000;2023-03-01T15:04:52;21.80;85.70
38995;DHT22;24769;18.712;99.000;2023-03-01T15:07:25;21.70;87.60
38995;DHT22;24769;18.712;99.000;2023-03-01T15:09:52;21.80;87.40
38995;DHT22;24769;18.712;99.000;2023-03-01T15:14:56;21.80;88.20
38995;DHT22;24769;18.712;99.000;2023-03-01T15:17:36;21.70;89.60
38995;DHT22;24769;18.712;99.000;2023-03-01T15:20:17;21.70;92.40
38995;DHT22;24769;18.712;99.000;2023-03-01T15:22:45;21.60;92.30
38995;DHT22;24769;18.712;99.000;2023-03-01T15:25:19;21.60;92.30
38995;DHT22;24769;18.712;99.000;2023-03-01T15:27:48;21.60;91.70
38995;DHT22;24769;18.712;99.000;2023-03-01T15:30:29;21.50;93.00
38995;DHT22;24769;18.712;99.000;2023-03-01T15:35:48;21.30;94.50
38995;DHT22;24769;18.712;99.000;2023-03-01T15:40:53;21.30;96.80
38995;DHT22;24769;18.712;99.000;2023-03-01T15:43:46;21.30;97.20
38995;DHT22;24769;18.712;99.000;2023-03-01T15:46:22;21.30;99.90
38995;DHT22;24769;18.712;99.000;2023-03-01T15:49:02;21.20;99.90
38995;DHT22;24769;18.712;99.000;2023-03-01T15:51:32;21.20;99.90
38995;DHT22;24769;18.712;99.000;2023-03-01T15:54:04;21.10;99.90
38995;DHT22;24769;18.712;99.000;2023-03-01T15:56:31;21.10;99.90
38995;DHT22;24769;18.712;99.000;2023-03-01T15:58:59;21.00;99.90
38995;DHT22;24769;18.712;99.000;2023-03-01T16:01:26;20.90;99.90
38995;DHT22;24769;18.712;99.000;2023-03-01T16:03:53;20.90;99.90
38995;DHT22;24769;18.712;99.000;2023-03-01T16:06:20;20.90;99.90
38995;DHT22;24769;18.712;99.000;2023-03-01T16:08:46;20.90;99.90
38995;DHT22;24769;18.712;99.000;2023-03-01T16:11:21;20.80;99.90
38995;DHT22;24769;18.712;99.000;2023-03-01T16:13:48;20.80;99.90
38995;DHT22;24769;18.712;99.000;2023-03-01T16:16:16;20.80;99.90
38995;DHT22;24769;18.712;99.000;2023-03-01T16:18:44;20.80;99.90
38995;DHT22;24769;18.712;99.000;2023-03-01T16:21:21;20.70;99.90
38995;DHT22;24769;18.712;99.000;2023-03-01T16:23:48;20.60;99.90
38995;DHT22;24769;18.712;99.000;2023-03-01T16:26:14;20.70;99.90
38995;DHT22;24769;18.712;99.000;2023-03-01T16:28:42;20.70;99.90
38995;DHT22;24769;18.712;99.000;2023-03-01T16:31:10;20.70;99.90
38995;DHT22;24769;18.712;99.000;2023-03-01T16:33:37;20.60;99.90
38995;DHT22;24769;18.712;99.000;2023-03-01T16:36:08;20.60;99.90
38995;DHT22;24769;18.712;99.000;2023-03-01T16:38:35;20.70;99.90
38995;DHT22;24769;18.712;99.000;2023-03-01T16:41:02;20.70;99.90
38995;DHT22;24769;18.712;99.000;2023-03-01T16:43:30;20.60;99.90
38995;DHT22;24769;18.712;99.000;2023-03-01T16:45:57;20.70;99.90
38995;DHT22;24769;18.712;99.000;2023-03-01T16:48:25;20.70;99.90
38995;DHT22;24769;18.712;99.000;2023-03-01T16:51:01;20.50;99.90
38995;DHT22;24769;18.712;99.000;2023-03-01T16:53:28;20.60;99.90
38995;DHT22;24769;18.712;99.000;2023-03-01T16:55:58;20.60;99.90
38995;DHT22;24769;18.712;99.000;2023-03-01T16:58:25;20.60;99.90
38995;DHT22;24769;18.712;99.000;2023-03-01T17:00:53;20.60;99.90
38995;DHT22;24769;18.712;99.000;2023-03-01T17:03:23;20.60;99.90
38995;DHT22;24769;18.712;99.000;2023-03-01T17:05:50;20.50;99.90
38995;DHT22;24769;18.712;99.000;2023-03-01T17:08:17;20.40;99.90
38995;DHT22;24769;18.712;99.000;2023-03-01T17:10:44;20.40;99.90
38995;DHT22;24769;18.712;99.000;2023-03-01T17:13:11;20.40;99.90
38995;DHT22;24769;18.712;99.000;2023-03-01T17:15:41;20.30;99.90
38995;DHT22;24769;18.712;99.000;2023-03-01T17:18:08;20.20;99.90
38995;DHT22;24769;18.712;99.000;2023-03-01T17:20:35;20.10;99.90
38995;DHT22;24769;18.712;99.000;2023-03-01T17:23:02;20.10;99.90
38995;DHT22;24769;18.712;99.000;2023-03-01T17:25:29;20.10;99.90
38995;DHT22;24769;18.712;99.000;2023-03-01T17:27:55;20.00;99.90
38995;DHT22;24769;18.712;99.000;2023-03-01T17:30:22;20.00;99.90
38995;DHT22;24769;18.712;99.000;2023-03-01T17:32:48;20.10;99.90
38995;DHT22;24769;18.712;99.000;2023-03-01T17:35:15;20.10;99.90
38995;DHT22;24769;18.712;99.000;2023-03-01T17:37:41;20.00;99.90
38995;DHT22;24769;18.712;99.000;2023-03-01T17:40:11;20.00;99.90
38995;DHT22;24769;18.712;99.000;2023-03-01T17:42:38;19.90;99.90
38995;DHT22;24769;18.712;99.000;2023-03-01T17:45:05;20.00;99.90
38995;DHT22;24769;18.712;99.000;2023-03-01T17:47:31;20.00;99.90